createdAt,value
2019-01-30T00:00:02.635Z,26.76
2019-01-30T00:01:03.450Z,27.06
2019-01-30T00:02:02.618Z,27.06
2019-01-30T00:03:02.618Z,26.96
2019-01-30T00:04:02.589Z,26.76
2019-01-30T00:05:02.580Z,26.76
2019-01-30T00:06:02.567Z,26.76
2019-01-30T00:07:03.447Z,26.35
2019-01-30T00:08:02.566Z,26.46
2019-01-30T00:09:02.537Z,26.56
2019-01-30T00:10:02.526Z,26.56
2019-01-30T00:11:02.514Z,26.26
2019-01-30T00:12:02.504Z,26.56
2019-01-30T00:13:02.963Z,26.76
2019-01-30T00:14:02.485Z,26.35
2019-01-30T00:15:02.471Z,26.46
2019-01-30T00:16:02.461Z,26.76
2019-01-30T00:17:02.448Z,26.76
2019-01-30T00:18:02.465Z,26.56
2019-01-30T00:19:02.948Z,26.35
2019-01-30T00:20:02.414Z,26.76
2019-01-30T00:21:02.948Z,26.35
2019-01-30T00:22:02.494Z,26.35
2019-01-30T00:23:02.400Z,26.35
2019-01-30T00:24:02.951Z,26.46
2019-01-30T00:25:02.371Z,26.56
2019-01-30T00:26:02.354Z,26.35
2019-01-30T00:27:02.342Z,26.16
2019-01-30T00:28:02.362Z,26.46
2019-01-30T00:29:02.322Z,26.46
2019-01-30T00:30:04.146Z,26.56
2019-01-30T00:31:02.297Z,26.35
2019-01-30T00:32:02.292Z,26.35
2019-01-30T00:33:02.281Z,26.46
2019-01-30T00:34:02.283Z,26.46
2019-01-30T00:35:02.258Z,26.46
2019-01-30T00:36:02.250Z,26.56
2019-01-30T00:37:02.245Z,26.35
2019-01-30T00:38:02.953Z,26.56
2019-01-30T00:39:02.241Z,26.35
2019-01-30T00:40:02.209Z,26.35
2019-01-30T00:41:02.955Z,26.56
2019-01-30T00:42:02.953Z,26.35
2019-01-30T00:43:02.966Z,26.35
2019-01-30T00:44:02.175Z,26.56
2019-01-30T00:45:02.150Z,26.96
2019-01-30T00:46:02.953Z,26.96
2019-01-30T00:47:02.129Z,26.65
2019-01-30T00:48:02.967Z,26.65
2019-01-30T00:49:02.121Z,27.15
2019-01-30T00:50:02.098Z,26.35
2019-01-30T00:51:02.092Z,26.76
2019-01-30T00:52:02.076Z,26.76
2019-01-30T00:53:02.066Z,26.56
2019-01-30T00:54:02.480Z,26.65
2019-01-30T00:55:02.046Z,26.65
2019-01-30T00:56:02.034Z,27.06
2019-01-30T00:57:02.024Z,26.76
2019-01-30T00:58:02.021Z,26.76
2019-01-30T00:59:02.014Z,26.76
2019-01-30T01:00:01.996Z,26.76
2019-01-30T01:01:01.980Z,26.76
2019-01-30T01:02:01.972Z,26.76
2019-01-30T01:03:01.962Z,26.76
2019-01-30T01:04:01.964Z,26.65
2019-01-30T01:05:01.942Z,26.26
2019-01-30T01:06:01.948Z,26.46
2019-01-30T01:07:01.915Z,26.96
2019-01-30T01:08:01.909Z,26.56
2019-01-30T01:09:01.912Z,26.65
2019-01-30T01:10:01.888Z,26.56
2019-01-30T01:11:01.874Z,26.56
2019-01-30T01:12:02.456Z,26.76
2019-01-30T01:13:01.858Z,26.56
2019-01-30T01:14:01.964Z,26.76
2019-01-30T01:15:02.456Z,26.46
2019-01-30T01:16:01.828Z,26.56
2019-01-30T01:17:01.809Z,26.56
2019-01-30T01:18:01.799Z,26.56
2019-01-30T01:19:01.799Z,26.76
2019-01-30T01:20:01.784Z,26.46
2019-01-30T01:21:01.769Z,26.46
2019-01-30T01:22:01.755Z,26.46
2019-01-30T01:23:02.459Z,26.65
2019-01-30T01:24:01.971Z,26.46
2019-01-30T01:25:01.729Z,26.46
2019-01-30T01:26:01.713Z,26.56
2019-01-30T01:27:01.704Z,26.35
2019-01-30T01:28:02.459Z,26.46
2019-01-30T01:29:01.967Z,26.46
2019-01-30T01:30:01.672Z,27.26
2019-01-30T01:31:02.459Z,26.35
2019-01-30T01:32:01.649Z,26.26
2019-01-30T01:33:01.645Z,26.65
2019-01-30T01:34:01.971Z,26.46
2019-01-30T01:35:02.459Z,26.65
2019-01-30T01:36:01.607Z,27.06
2019-01-30T01:37:02.463Z,26.56
2019-01-30T01:38:02.474Z,26.96
2019-01-30T01:39:01.971Z,27.06
2019-01-30T01:40:01.598Z,27.15
2019-01-30T01:41:01.554Z,26.76
2019-01-30T01:42:01.544Z,27.06
2019-01-30T01:43:02.463Z,27.15
2019-01-30T01:44:01.973Z,26.96
2019-01-30T01:45:01.521Z,26.86
2019-01-30T01:46:02.461Z,26.56
2019-01-30T01:47:01.493Z,26.35
2019-01-30T01:48:01.482Z,27.15
2019-01-30T01:49:01.488Z,27.15
2019-01-30T01:50:01.461Z,27.06
2019-01-30T01:51:01.449Z,26.65
2019-01-30T01:52:01.959Z,27.15
2019-01-30T01:53:01.425Z,27.06
2019-01-30T01:54:01.433Z,27.06
2019-01-30T01:55:01.409Z,27.06
2019-01-30T01:56:01.394Z,26.96
2019-01-30T01:57:01.386Z,27.06
2019-01-30T01:58:01.962Z,26.86
2019-01-30T01:59:01.378Z,27.06
2019-01-30T02:00:01.354Z,26.96
2019-01-30T02:01:01.341Z,26.96
2019-01-30T02:02:01.333Z,27.06
2019-01-30T02:03:01.322Z,26.64
2019-01-30T02:04:01.471Z,26.46
2019-01-30T02:05:01.319Z,27.15
2019-01-30T02:06:01.290Z,27.04
2019-01-30T02:07:01.958Z,27.06
2019-01-30T02:08:01.268Z,26.96
2019-01-30T02:09:01.274Z,26.96
2019-01-30T02:10:01.257Z,26.46
2019-01-30T02:11:01.239Z,26.96
2019-01-30T02:12:01.227Z,27.15
2019-01-30T02:13:01.217Z,27.15
2019-01-30T02:14:01.222Z,26.96
2019-01-30T02:15:01.194Z,26.96
2019-01-30T02:16:01.181Z,27.15
2019-01-30T02:17:01.174Z,27.06
2019-01-30T02:18:01.165Z,26.86
2019-01-30T02:19:01.171Z,27.06
2019-01-30T02:20:01.961Z,27.06
2019-01-30T02:21:01.133Z,27.15
2019-01-30T02:22:01.123Z,27.06
2019-01-30T02:23:01.110Z,27.15
2019-01-30T02:24:01.116Z,27.06
2019-01-30T02:25:01.958Z,26.96
2019-01-30T02:26:01.083Z,27.06
2019-01-30T02:27:01.068Z,27.06
2019-01-30T02:28:01.991Z,27.06
2019-01-30T02:29:01.060Z,26.76
2019-01-30T02:30:01.963Z,26.86
2019-01-30T02:31:01.025Z,26.86
2019-01-30T02:32:01.015Z,26.86
2019-01-30T02:33:01.960Z,26.96
2019-01-30T02:34:01.015Z,26.96
2019-01-30T02:35:00.982Z,27.06
2019-01-30T02:36:00.991Z,27.06
2019-01-30T02:37:01.471Z,27.06
2019-01-30T02:38:00.951Z,26.35
2019-01-30T02:39:00.969Z,26.86
2019-01-30T02:40:00.933Z,26.65
2019-01-30T02:41:00.921Z,27.06
2019-01-30T02:42:00.908Z,27.06
2019-01-30T02:43:00.896Z,26.86
2019-01-30T02:44:00.895Z,26.96
2019-01-30T02:45:00.900Z,26.96
2019-01-30T02:46:00.866Z,27.14
2019-01-30T02:47:00.871Z,27.04
2019-01-30T02:48:00.853Z,27.06
2019-01-30T02:49:01.461Z,27.15
2019-01-30T02:50:00.851Z,27.04
2019-01-30T02:51:00.814Z,26.96
2019-01-30T02:52:00.801Z,27.04
2019-01-30T02:53:00.793Z,26.96
2019-01-30T02:54:01.462Z,27.04
2019-01-30T02:55:00.785Z,26.56
2019-01-30T02:56:00.760Z,26.96
2019-01-30T02:57:00.750Z,26.34
2019-01-30T02:58:00.739Z,26.96
2019-01-30T02:59:00.730Z,27.04
2019-01-30T03:00:00.730Z,26.64
2019-01-30T03:01:00.708Z,26.46
2019-01-30T03:02:00.697Z,27.15
2019-01-30T03:03:00.689Z,26.96
2019-01-30T03:04:00.684Z,26.96
2019-01-30T03:05:00.685Z,26.86
2019-01-30T03:06:00.653Z,27.06
2019-01-30T03:07:01.464Z,26.86
2019-01-30T03:08:00.635Z,27.04
2019-01-30T03:09:00.701Z,26.96
2019-01-30T03:10:00.629Z,27.04
2019-01-30T03:11:00.599Z,26.86
2019-01-30T03:12:01.464Z,26.94
2019-01-30T03:13:00.584Z,26.96
2019-01-30T03:14:00.570Z,26.86
2019-01-30T03:15:00.570Z,26.84
2019-01-30T03:16:01.465Z,26.65
2019-01-30T03:17:00.538Z,26.96
2019-01-30T03:18:00.531Z,26.65
2019-01-30T03:19:00.516Z,26.64
2019-01-30T03:20:00.977Z,26.64
2019-01-30T03:21:00.500Z,26.65
2019-01-30T03:22:00.485Z,26.65
2019-01-30T03:23:00.473Z,26.86
2019-01-30T03:24:00.465Z,26.65
2019-01-30T03:25:00.473Z,26.65
2019-01-30T03:26:00.439Z,26.64
2019-01-30T03:27:00.429Z,26.76
2019-01-30T03:28:00.417Z,26.64
2019-01-30T03:29:00.410Z,26.75
2019-01-30T03:30:00.430Z,26.64
2019-01-30T03:31:15.950Z,26.75
2019-01-30T03:32:00.380Z,26.64
2019-01-30T03:33:00.366Z,26.96
2019-01-30T03:34:00.350Z,26.64
2019-01-30T03:35:00.476Z,26.94
2019-01-30T03:36:00.966Z,26.65
2019-01-30T03:37:00.322Z,26.84
2019-01-30T03:38:00.310Z,26.94
2019-01-30T03:39:00.302Z,26.75
2019-01-30T03:40:00.477Z,26.64
2019-01-30T03:41:00.278Z,26.64
2019-01-30T03:42:00.266Z,26.64
2019-01-30T03:43:00.254Z,26.64
2019-01-30T03:44:00.246Z,26.64
2019-01-30T03:45:00.478Z,26.64
2019-01-30T03:46:00.228Z,26.94
2019-01-30T03:47:00.969Z,26.94
2019-01-30T03:48:00.201Z,27.15
2019-01-30T03:49:00.195Z,27.14
2019-01-30T03:50:00.313Z,27.14
2019-01-30T03:51:00.165Z,27.14
2019-01-30T03:52:00.966Z,26.75
2019-01-30T03:53:00.977Z,26.94
2019-01-30T03:54:00.966Z,26.64
2019-01-30T03:55:00.277Z,26.94
2019-01-30T03:56:00.112Z,27.14
2019-01-30T03:57:00.966Z,26.94
2019-01-30T03:58:00.094Z,26.75
2019-01-30T03:59:00.080Z,27.14
2019-01-30T04:00:00.391Z,27.04
2019-01-30T04:01:00.965Z,27.14
2019-01-30T04:02:00.968Z,26.75
2019-01-30T04:03:00.966Z,26.75
2019-01-30T04:04:00.968Z,26.94
2019-01-30T04:05:00.037Z,26.75
2019-01-30T04:06:00.004Z,26.75
2019-01-30T04:06:59.993Z,26.94
2019-01-30T04:08:00.969Z,27.14
2019-01-30T04:09:00.976Z,26.54
2019-01-30T04:09:59.973Z,26.75
2019-01-30T04:10:59.951Z,26.75
2019-01-30T04:11:59.941Z,27.04
2019-01-30T04:12:59.927Z,26.64
2019-01-30T04:14:00.787Z,27.14
2019-01-30T04:14:59.987Z,26.64
2019-01-30T04:15:59.896Z,27.04
2019-01-30T04:16:59.891Z,26.75
2019-01-30T04:17:59.878Z,26.75
2019-01-30T04:18:59.866Z,26.04
2019-01-30T04:19:59.877Z,26.04
2019-01-30T04:20:59.844Z,26.34
2019-01-30T04:21:59.831Z,26.84
2019-01-30T04:22:59.819Z,25.93
2019-01-30T04:23:59.819Z,26.03
2019-01-30T04:24:59.819Z,26.03
2019-01-30T04:25:59.784Z,25.93
2019-01-30T04:26:59.777Z,26.23
2019-01-30T04:27:59.767Z,26.14
2019-01-30T04:28:59.757Z,26.23
2019-01-30T04:29:59.768Z,26.14
2019-01-30T04:30:59.733Z,25.93
2019-01-30T04:32:00.478Z,26.03
2019-01-30T04:32:59.713Z,25.84
2019-01-30T04:34:00.469Z,25.92
2019-01-30T04:34:59.714Z,25.62
2019-01-30T04:35:59.680Z,25.62
2019-01-30T04:36:59.673Z,26.12
2019-01-30T04:37:59.660Z,26.12
2019-01-30T04:38:59.649Z,25.32
2019-01-30T04:39:59.660Z,25.62
2019-01-30T04:40:59.639Z,25.22
2019-01-30T04:41:59.618Z,25.32
2019-01-30T04:42:59.605Z,25.01
2019-01-30T04:44:00.472Z,25.51
2019-01-30T04:44:59.586Z,25.51
2019-01-30T04:45:59.986Z,25.51
2019-01-30T04:46:59.569Z,26.01
2019-01-30T04:47:59.554Z,25.71
2019-01-30T04:48:59.537Z,25.51
2019-01-30T04:49:59.539Z,25.70
2019-01-30T04:50:59.541Z,25.51
2019-01-30T04:51:59.510Z,25.81
2019-01-30T04:52:59.515Z,25.71
2019-01-30T04:53:59.492Z,25.61
2019-01-30T04:54:59.476Z,25.60
2019-01-30T04:55:59.990Z,25.50
2019-01-30T04:56:59.974Z,25.99
2019-01-30T04:57:59.981Z,25.70
2019-01-30T04:58:59.432Z,25.90
2019-01-30T04:59:59.970Z,25.90
2019-01-30T05:00:59.490Z,25.60
2019-01-30T05:01:59.405Z,25.79
2019-01-30T05:02:59.392Z,25.60
2019-01-30T05:03:59.385Z,25.70
2019-01-30T05:04:59.979Z,25.60
2019-01-30T05:05:59.380Z,25.59
2019-01-30T05:06:59.349Z,25.59
2019-01-30T05:07:59.338Z,25.19
2019-01-30T05:08:59.329Z,25.49
2019-01-30T05:09:59.320Z,24.79
2019-01-30T05:10:59.482Z,25.20
2019-01-30T05:11:59.297Z,25.09
2019-01-30T05:12:59.979Z,24.69
2019-01-30T05:14:01.487Z,24.69
2019-01-30T05:14:59.264Z,24.59
2019-01-30T05:15:59.273Z,24.69
2019-01-30T05:16:59.243Z,24.79
2019-01-30T05:17:59.234Z,24.99
2019-01-30T05:18:59.220Z,25.09
2019-01-30T05:19:59.209Z,24.77
2019-01-30T05:20:59.214Z,24.98
2019-01-30T05:21:59.188Z,24.89
2019-01-30T05:22:59.175Z,24.79
2019-01-30T05:23:59.166Z,24.77
2019-01-30T05:24:59.157Z,24.77
2019-01-30T05:26:00.077Z,24.69
2019-01-30T05:26:59.132Z,24.68
2019-01-30T05:27:59.123Z,24.68
2019-01-30T05:28:59.112Z,24.69
2019-01-30T05:29:59.221Z,24.68
2019-01-30T05:30:59.103Z,24.59
2019-01-30T05:32:01.436Z,24.58
2019-01-30T05:32:59.075Z,24.58
2019-01-30T05:33:59.973Z,24.77
2019-01-30T05:34:59.042Z,24.58
2019-01-30T05:35:59.068Z,24.59
2019-01-30T05:36:59.025Z,24.77
2019-01-30T05:37:59.015Z,24.68
2019-01-30T05:38:59.005Z,24.68
2019-01-30T05:39:58.988Z,25.07
2019-01-30T05:40:59.486Z,25.07
2019-01-30T05:41:58.967Z,25.07
2019-01-30T05:42:59.475Z,24.68
2019-01-30T05:43:58.952Z,25.27
2019-01-30T05:44:59.468Z,24.98
2019-01-30T05:45:58.984Z,25.18
2019-01-30T05:46:58.911Z,25.27
2019-01-30T05:47:58.904Z,25.07
2019-01-30T05:48:58.891Z,25.18
2019-01-30T05:49:58.879Z,25.18
2019-01-30T05:50:58.881Z,25.27
2019-01-30T05:51:58.861Z,24.98
2019-01-30T05:52:58.846Z,25.18
2019-01-30T05:53:58.836Z,24.98
2019-01-30T05:54:58.826Z,25.18
2019-01-30T05:55:58.990Z,24.68
2019-01-30T05:56:58.809Z,24.68
2019-01-30T05:57:59.475Z,25.27
2019-01-30T05:58:58.781Z,24.88
2019-01-30T05:59:58.770Z,24.88
2019-01-30T06:00:58.772Z,24.68
2019-01-30T06:01:59.492Z,25.18
2019-01-30T06:02:58.739Z,25.27
2019-01-30T06:03:58.725Z,25.29
2019-01-30T06:04:58.715Z,25.27
2019-01-30T06:05:58.999Z,24.88
2019-01-30T06:06:58.692Z,25.07
2019-01-30T06:07:58.687Z,24.68
2019-01-30T06:08:58.669Z,25.27
2019-01-30T06:09:58.659Z,24.77
2019-01-30T06:10:58.665Z,24.58
2019-01-30T06:11:58.635Z,24.58
2019-01-30T06:12:58.640Z,24.79
2019-01-30T06:13:58.617Z,24.58
2019-01-30T06:14:58.604Z,24.77
2019-01-30T06:15:58.612Z,24.77
2019-01-30T06:16:58.587Z,24.68
2019-01-30T06:17:58.575Z,24.77
2019-01-30T06:18:59.478Z,24.79
2019-01-30T06:19:58.552Z,24.68
2019-01-30T06:20:58.988Z,24.68
2019-01-30T06:21:58.529Z,24.77
2019-01-30T06:23:01.514Z,24.77
2019-01-30T06:23:58.513Z,24.79
2019-01-30T06:24:58.497Z,24.58
2019-01-30T06:25:58.523Z,24.68
2019-01-30T06:26:58.474Z,24.77
2019-01-30T06:27:58.478Z,24.77
2019-01-30T06:28:58.458Z,24.68
2019-01-30T06:29:58.440Z,24.79
2019-01-30T06:30:58.449Z,24.58
2019-01-30T06:31:58.419Z,24.69
2019-01-30T06:32:58.408Z,24.77
2019-01-30T06:33:58.401Z,24.88
2019-01-30T06:34:58.390Z,24.68
2019-01-30T06:35:58.390Z,24.68
2019-01-30T06:36:58.366Z,24.58
2019-01-30T06:37:58.352Z,24.58
2019-01-30T06:38:58.344Z,24.58
2019-01-30T06:39:58.333Z,24.77
2019-01-30T06:40:58.334Z,25.97
2019-01-30T06:41:58.311Z,25.67
2019-01-30T06:42:58.301Z,24.77
2019-01-30T06:43:58.288Z,25.27
2019-01-30T06:44:58.280Z,24.77
2019-01-30T06:45:58.270Z,24.99
2019-01-30T06:46:58.269Z,25.09
2019-01-30T06:47:58.245Z,24.10
2019-01-30T06:48:58.982Z,24.79
2019-01-30T06:49:58.226Z,25.30
2019-01-30T06:50:58.212Z,24.01
2019-01-30T06:51:58.211Z,24.10
2019-01-30T06:52:58.192Z,24.60
2019-01-30T06:53:58.177Z,24.50
2019-01-30T06:54:58.197Z,24.32
2019-01-30T06:55:58.158Z,24.01
2019-01-30T06:56:58.489Z,23.91
2019-01-30T06:57:58.134Z,24.02
2019-01-30T06:58:58.125Z,23.91
2019-01-30T06:59:58.112Z,23.72
2019-01-30T07:00:58.101Z,24.21
2019-01-30T07:01:58.106Z,23.72
2019-01-30T07:02:58.080Z,23.82
2019-01-30T07:03:58.069Z,24.11
2019-01-30T07:04:58.062Z,24.02
2019-01-30T07:05:58.981Z,24.32
2019-01-30T07:06:58.050Z,24.02
2019-01-30T07:07:58.028Z,24.22
2019-01-30T07:08:58.978Z,24.02
2019-01-30T07:09:58.007Z,24.21
2019-01-30T07:10:58.002Z,24.21
2019-01-30T07:11:58.005Z,24.52
2019-01-30T07:12:58.478Z,24.21
2019-01-30T07:13:57.960Z,24.13
2019-01-30T07:14:57.949Z,24.22
2019-01-30T07:15:58.480Z,24.02
2019-01-30T07:16:57.944Z,24.02
2019-01-30T07:17:57.914Z,24.32
2019-01-30T07:18:57.909Z,24.32
2019-01-30T07:19:57.893Z,24.13
2019-01-30T07:20:57.882Z,24.13
2019-01-30T07:21:57.884Z,23.93
2019-01-30T07:22:57.861Z,24.32
2019-01-30T07:23:57.848Z,24.32
2019-01-30T07:24:57.842Z,23.72
2019-01-30T07:25:58.480Z,24.02
2019-01-30T07:26:57.831Z,24.02
2019-01-30T07:27:57.805Z,23.93
2019-01-30T07:28:57.793Z,23.93
2019-01-30T07:29:57.783Z,23.93
2019-01-30T07:30:58.480Z,23.93
2019-01-30T07:31:57.995Z,23.63
2019-01-30T07:32:57.754Z,24.02
2019-01-30T07:33:57.740Z,23.93
2019-01-30T07:34:57.726Z,23.93
2019-01-30T07:35:58.483Z,24.02
2019-01-30T07:36:57.730Z,24.52
2019-01-30T07:37:58.717Z,24.43
2019-01-30T07:38:57.683Z,25.12
2019-01-30T07:39:57.679Z,25.42
2019-01-30T07:40:57.663Z,25.52
2019-01-30T07:41:57.992Z,25.62
2019-01-30T07:42:58.480Z,25.62
2019-01-30T07:43:57.635Z,25.02
2019-01-30T07:44:57.624Z,25.62
2019-01-30T07:45:58.478Z,25.62
2019-01-30T07:46:57.992Z,25.42
2019-01-30T07:47:58.482Z,25.42
2019-01-30T07:48:57.579Z,25.82
2019-01-30T07:49:57.577Z,25.32
2019-01-30T07:50:57.550Z,25.62
2019-01-30T07:51:57.554Z,25.72
2019-01-30T07:52:58.982Z,25.82
2019-01-30T07:53:57.516Z,25.62
2019-01-30T07:54:57.524Z,25.32
2019-01-30T07:55:58.481Z,24.73
2019-01-30T07:56:57.503Z,25.62
2019-01-30T07:57:57.983Z,24.82
2019-01-30T07:58:57.459Z,24.92
2019-01-30T07:59:57.455Z,24.82
2019-01-30T08:00:57.992Z,25.52
2019-01-30T08:01:57.490Z,25.12
2019-01-30T08:02:57.415Z,24.52
2019-01-30T08:03:57.407Z,24.13
2019-01-30T08:04:57.398Z,24.13
2019-01-30T08:05:57.393Z,24.62
2019-01-30T08:06:57.394Z,24.13
2019-01-30T08:07:57.981Z,24.13
2019-01-30T08:08:57.352Z,24.62
2019-01-30T08:09:57.340Z,24.22
2019-01-30T08:10:57.340Z,24.13
2019-01-30T08:11:57.494Z,24.02
2019-01-30T08:12:58.979Z,24.32
2019-01-30T08:13:57.298Z,24.02
2019-01-30T08:14:57.296Z,24.22
2019-01-30T08:15:57.279Z,24.22
2019-01-30T08:16:57.278Z,24.02
2019-01-30T08:17:57.983Z,24.13
2019-01-30T08:18:57.243Z,24.82
2019-01-30T08:19:57.231Z,24.82
2019-01-30T08:20:57.221Z,24.52
2019-01-30T08:21:57.497Z,24.32
2019-01-30T08:22:57.279Z,24.62
2019-01-30T08:23:58.224Z,24.73
2019-01-30T08:24:57.550Z,24.32
2019-01-30T08:25:57.260Z,24.32
2019-01-30T08:26:57.181Z,24.43
2019-01-30T08:27:57.470Z,23.93
2019-01-30T08:28:57.311Z,23.93
2019-01-30T08:29:57.449Z,23.93
2019-01-30T08:30:57.413Z,23.63
2019-01-30T08:31:57.699Z,24.24
2019-01-30T08:33:04.887Z,24.04
2019-01-30T08:33:57.082Z,23.94
2019-01-30T08:34:57.074Z,23.63
2019-01-30T08:35:57.068Z,24.13
2019-01-30T08:36:57.061Z,24.13
2019-01-30T08:37:57.986Z,23.83
2019-01-30T08:38:57.030Z,23.93
2019-01-30T08:39:57.020Z,24.43
2019-01-30T08:40:57.987Z,24.02
2019-01-30T08:41:57.012Z,23.84
2019-01-30T08:42:57.488Z,24.32
2019-01-30T08:43:58.013Z,24.43
2019-01-30T08:44:56.965Z,23.83
2019-01-30T08:45:56.953Z,23.93
2019-01-30T08:46:56.957Z,23.84
2019-01-30T08:47:56.936Z,24.32
2019-01-30T08:48:56.949Z,24.52
2019-01-30T08:49:57.489Z,24.02
2019-01-30T08:50:56.903Z,23.93
2019-01-30T08:51:57.486Z,24.32
2019-01-30T08:52:56.894Z,24.43
2019-01-30T08:53:57.487Z,23.83
2019-01-30T08:54:57.492Z,24.02
2019-01-30T08:55:57.484Z,24.13
2019-01-30T08:56:56.839Z,23.83
2019-01-30T08:57:56.847Z,24.43
2019-01-30T08:58:57.486Z,24.43
2019-01-30T08:59:57.486Z,24.43
2019-01-30T09:00:57.485Z,23.93
2019-01-30T09:01:56.799Z,24.13
2019-01-30T09:02:57.011Z,24.32
2019-01-30T09:03:56.764Z,24.13
2019-01-30T09:04:56.755Z,24.82
2019-01-30T09:05:56.737Z,23.63
2019-01-30T09:06:56.730Z,24.02
2019-01-30T09:07:56.999Z,24.22
2019-01-30T09:08:56.709Z,24.32
2019-01-30T09:09:56.697Z,24.02
2019-01-30T09:10:56.687Z,23.93
2019-01-30T09:11:57.769Z,24.32
2019-01-30T09:12:56.687Z,24.02
2019-01-30T09:13:56.654Z,23.83
2019-01-30T09:14:57.487Z,24.22
2019-01-30T09:15:56.630Z,23.93
2019-01-30T09:16:57.490Z,24.02
2019-01-30T09:17:56.629Z,23.72
2019-01-30T09:18:57.492Z,23.72
2019-01-30T09:19:56.589Z,23.63
2019-01-30T09:20:57.489Z,23.72
2019-01-30T09:21:57.501Z,23.93
2019-01-30T09:22:56.587Z,23.93
2019-01-30T09:23:57.488Z,23.93
2019-01-30T09:24:57.488Z,23.93
2019-01-30T09:25:57.528Z,24.02
2019-01-30T09:26:57.489Z,23.82
2019-01-30T09:27:56.527Z,24.41
2019-01-30T09:28:57.505Z,24.32
2019-01-30T09:29:56.480Z,23.93
2019-01-30T09:30:56.986Z,24.02
2019-01-30T09:31:56.988Z,24.02
2019-01-30T09:32:57.012Z,23.82
2019-01-30T09:33:57.002Z,23.91
2019-01-30T09:34:56.429Z,23.91
2019-01-30T09:35:56.419Z,24.11
2019-01-30T09:36:56.988Z,24.41
2019-01-30T09:37:56.501Z,24.32
2019-01-30T09:38:56.384Z,24.21
2019-01-30T09:39:56.988Z,24.81
2019-01-30T09:40:56.362Z,24.21
2019-01-30T09:41:57.034Z,23.91
2019-01-30T09:42:56.381Z,23.82
2019-01-30T09:43:56.341Z,24.21
2019-01-30T09:44:56.989Z,23.72
2019-01-30T09:45:57.044Z,23.91
2019-01-30T09:46:56.303Z,23.90
2019-01-30T09:47:57.011Z,23.80
2019-01-30T09:48:56.995Z,23.71
2019-01-30T09:49:56.265Z,23.90
2019-01-30T09:50:56.281Z,23.90
2019-01-30T09:51:56.248Z,24.01
2019-01-30T09:52:56.503Z,24.30
2019-01-30T09:53:57.662Z,24.19
2019-01-30T09:54:56.259Z,24.19
2019-01-30T09:55:56.205Z,24.10
2019-01-30T09:56:56.193Z,24.39
2019-01-30T09:57:56.200Z,24.48
2019-01-30T09:58:56.993Z,24.38
2019-01-30T09:59:56.988Z,24.88
2019-01-30T10:00:56.147Z,23.98
2019-01-30T10:01:56.137Z,24.48
2019-01-30T10:02:57.028Z,24.77
2019-01-30T10:03:56.116Z,24.48
2019-01-30T10:04:56.105Z,24.48
2019-01-30T10:05:56.990Z,24.17
2019-01-30T10:06:56.093Z,24.37
2019-01-30T10:07:56.520Z,24.87
2019-01-30T10:08:56.065Z,25.56
2019-01-30T10:09:56.054Z,24.87
2019-01-30T10:10:56.042Z,25.06
2019-01-30T10:11:56.032Z,24.95
2019-01-30T10:12:56.036Z,24.55
2019-01-30T10:13:56.999Z,24.85
2019-01-30T10:14:56.002Z,25.25
2019-01-30T10:15:55.991Z,25.15
2019-01-30T10:16:55.979Z,24.55
2019-01-30T10:17:55.985Z,24.75
2019-01-30T10:18:55.963Z,24.95
2019-01-30T10:19:56.045Z,24.84
2019-01-30T10:20:55.952Z,24.74
2019-01-30T10:21:56.496Z,24.74
2019-01-30T10:22:55.956Z,25.05
2019-01-30T10:23:56.507Z,24.65
2019-01-30T10:24:55.891Z,25.45
2019-01-30T10:25:55.969Z,25.35
2019-01-30T10:26:56.492Z,25.35
2019-01-30T10:27:56.001Z,24.87
2019-01-30T10:28:55.859Z,24.66
2019-01-30T10:29:55.839Z,24.87
2019-01-30T10:30:56.491Z,23.98
2019-01-30T10:31:55.829Z,24.47
2019-01-30T10:32:56.003Z,23.78
2019-01-30T10:33:55.802Z,23.58
2019-01-30T10:34:56.496Z,22.50
2019-01-30T10:35:56.496Z,23.60
2019-01-30T10:36:56.495Z,23.49
2019-01-30T10:37:56.000Z,23.39
2019-01-30T10:38:55.837Z,24.40
2019-01-30T10:39:55.734Z,24.01
2019-01-30T10:40:56.490Z,24.51
2019-01-30T10:41:55.714Z,23.91
2019-01-30T10:42:57.379Z,23.82
2019-01-30T10:43:55.698Z,24.21
2019-01-30T10:44:55.694Z,24.32
2019-01-30T10:45:56.493Z,23.82
2019-01-30T10:46:55.658Z,23.72
2019-01-30T10:47:56.007Z,24.51
2019-01-30T10:48:55.635Z,24.21
2019-01-30T10:49:55.660Z,24.32
2019-01-30T10:50:56.503Z,23.93
2019-01-30T10:51:56.511Z,23.91
2019-01-30T10:52:55.613Z,24.02
2019-01-30T10:53:56.507Z,24.22
2019-01-30T10:54:55.615Z,24.92
2019-01-30T10:55:55.563Z,25.32
2019-01-30T10:56:55.564Z,24.51
2019-01-30T10:57:55.542Z,24.92
2019-01-30T10:58:56.011Z,25.02
2019-01-30T10:59:55.529Z,24.22
2019-01-30T11:00:56.622Z,24.22
2019-01-30T11:01:55.510Z,25.32
2019-01-30T11:02:55.489Z,25.02
2019-01-30T11:03:57.314Z,24.91
2019-01-30T11:04:55.472Z,24.62
2019-01-30T11:05:55.465Z,25.01
2019-01-30T11:06:55.446Z,25.21
2019-01-30T11:07:55.441Z,25.41
2019-01-30T11:08:55.471Z,25.60
2019-01-30T11:09:56.020Z,25.90
2019-01-30T11:10:55.406Z,25.60
2019-01-30T11:11:55.402Z,25.38
2019-01-30T11:12:55.382Z,25.68
2019-01-30T11:13:55.381Z,25.98
2019-01-30T11:14:55.997Z,25.67
2019-01-30T11:15:55.351Z,25.48
2019-01-30T11:16:55.339Z,25.68
2019-01-30T11:17:55.328Z,25.48
2019-01-30T11:18:55.508Z,25.48
2019-01-30T11:19:55.995Z,25.37
2019-01-30T11:20:55.299Z,25.37
2019-01-30T11:21:55.285Z,25.57
2019-01-30T11:22:55.271Z,25.27
2019-01-30T11:23:55.518Z,25.37
2019-01-30T11:24:55.769Z,25.76
2019-01-30T11:25:56.939Z,25.66
2019-01-30T11:26:55.230Z,25.46
2019-01-30T11:27:55.995Z,25.66
2019-01-30T11:28:55.233Z,25.16
2019-01-30T11:29:55.197Z,25.46
2019-01-30T11:30:56.002Z,25.56
2019-01-30T11:31:55.172Z,26.26
2019-01-30T11:32:55.640Z,25.86
2019-01-30T11:33:55.172Z,25.96
2019-01-30T11:34:55.146Z,25.96
2019-01-30T11:35:55.144Z,26.26
2019-01-30T11:36:55.122Z,26.65
2019-01-30T11:37:55.997Z,26.56
2019-01-30T11:38:55.117Z,26.65
2019-01-30T11:39:55.208Z,26.35
2019-01-30T11:40:56.010Z,26.65
2019-01-30T11:41:56.128Z,26.65
2019-01-30T11:42:55.055Z,26.56
2019-01-30T11:43:55.060Z,26.37
2019-01-30T11:44:55.034Z,26.56
2019-01-30T11:45:55.032Z,26.27
2019-01-30T11:46:55.997Z,27.17
2019-01-30T11:47:55.002Z,27.36
2019-01-30T11:48:56.364Z,26.87
2019-01-30T11:49:54.981Z,27.47
2019-01-30T11:50:54.971Z,27.56
2019-01-30T11:51:54.987Z,27.36
2019-01-30T11:52:54.946Z,26.57
2019-01-30T11:53:54.948Z,26.76
2019-01-30T11:54:55.505Z,26.87
2019-01-30T11:55:54.915Z,27.28
2019-01-30T11:56:54.907Z,26.98
2019-01-30T11:57:54.900Z,27.26
2019-01-30T11:58:55.026Z,27.47
2019-01-30T11:59:54.869Z,28.06
2019-01-30T12:00:54.875Z,28.17
2019-01-30T12:01:55.655Z,28.17
2019-01-30T12:02:55.501Z,28.08
2019-01-30T12:03:54.844Z,27.78
2019-01-30T12:04:54.816Z,28.47
2019-01-30T12:05:54.812Z,28.27
2019-01-30T12:06:54.793Z,27.79
2019-01-30T12:07:54.787Z,28.09
2019-01-30T12:08:54.787Z,27.39
2019-01-30T12:09:55.985Z,26.59
2019-01-30T12:10:55.503Z,26.89
2019-01-30T12:11:54.738Z,26.69
2019-01-30T12:12:54.726Z,27.50
2019-01-30T12:13:54.739Z,26.70
2019-01-30T12:14:54.709Z,26.31
2019-01-30T12:15:54.714Z,26.70
2019-01-30T12:16:54.693Z,27.11
2019-01-30T12:17:54.672Z,26.81
2019-01-30T12:18:55.010Z,27.11
2019-01-30T12:19:54.651Z,26.70
2019-01-30T12:20:55.502Z,26.81
2019-01-30T12:21:54.630Z,26.61
2019-01-30T12:22:54.618Z,26.21
2019-01-30T12:23:55.014Z,26.01
2019-01-30T12:24:54.595Z,26.21
2019-01-30T12:25:54.583Z,26.01
2019-01-30T12:26:54.575Z,25.91
2019-01-30T12:27:54.572Z,26.21
2019-01-30T12:28:54.570Z,25.61
2019-01-30T12:29:54.540Z,26.10
2019-01-30T12:30:55.499Z,26.10
2019-01-30T12:31:54.564Z,26.09
2019-01-30T12:32:54.507Z,25.20
2019-01-30T12:33:54.511Z,25.61
2019-01-30T12:34:55.001Z,25.70
2019-01-30T12:35:54.480Z,26.10
2019-01-30T12:36:54.471Z,25.21
2019-01-30T12:37:54.454Z,25.31
2019-01-30T12:38:54.513Z,25.70
2019-01-30T12:39:55.000Z,25.71
2019-01-30T12:40:54.419Z,25.40
2019-01-30T12:41:55.004Z,25.41
2019-01-30T12:42:54.397Z,26.09
2019-01-30T12:43:54.528Z,26.21
2019-01-30T12:44:55.106Z,25.61
2019-01-30T12:45:54.364Z,25.99
2019-01-30T12:46:54.367Z,26.10
2019-01-30T12:47:55.007Z,25.99
2019-01-30T12:48:54.361Z,26.09
2019-01-30T12:49:54.320Z,25.70
2019-01-30T12:50:54.305Z,25.91
2019-01-30T12:51:55.043Z,26.29